Time;durP1;ratioP1;P1;durP2;ratioP2;P2;SDS_P1;SDS_P2;PMS_P1;PMS_P2;Temp;Humidity;BMP_temperature;BMP_pressure;BME280_temperature;BME280_humidity;BME280_pressure;Samples;Min_cycle;Max_cycle;Signal;HPM_P1;HPM_P2
2021/03/28 00:02:12;;;;;;;9.23;3.13;;;;;;;;;;5043916;28;20915;-68
2021/03/28 00:04:46;;;;;;;9.47;3.00;;;;;;;;;;5048132;28;20178;-67
2021/03/28 00:07:12;;;;;;;7.70;2.67;;;;;;;;;;5045817;28;20208;-68
2021/03/28 00:09:38;;;;;;;11.07;2.80;;;;;;;;;;5044945;28;20690;-69
2021/03/28 00:12:03;;;;;;;14.30;3.33;;;;;;;;;;5048465;28;20166;-68
2021/03/28 00:14:34;;;;;;;12.67;3.50;;;;;;;;;;5041261;28;20660;-68
2021/03/28 00:17:00;;;;;;;8.43;3.00;;;;;;;;;;5038745;28;20315;-68
2021/03/28 00:19:31;;;;;;;11.40;3.23;;;;;;;;;;5049768;28;20256;-68
2021/03/28 00:21:57;;;;;;;13.43;3.27;;;;;;;;;;5049071;28;20186;-69
2021/03/28 00:24:25;;;;;;;7.57;3.27;;;;;;;;;;5046672;28;20166;-67
2021/03/28 00:27:00;;;;;;;18.23;4.67;;;;;;;;;;5046912;28;20218;-68
2021/03/28 00:29:25;;;;;;;11.70;3.13;;;;;;;;;;5047528;28;20168;-68
2021/03/28 00:31:53;;;;;;;8.33;2.57;;;;;;;;;;5041470;28;20673;-68
2021/03/28 00:34:18;;;;;;;15.63;3.30;;;;;;;;;;5041495;28;20261;-68
2021/03/28 00:36:49;;;;;;;14.30;4.35;;;;;;;;;;5047691;28;20261;-68
2021/03/28 00:39:29;;;;;;;11.77;3.60;;;;;;;;;;5041884;28;20181;-68
2021/03/28 00:41:58;;;;;;;10.20;3.20;;;;;;;;;;5046775;28;20181;-68
2021/03/28 00:44:23;;;;;;;10.57;3.50;;;;;;;;;;5046375;28;20184;-68
2021/03/28 00:46:51;;;;;;;8.47;3.13;;;;;;;;;;5047762;28;20262;-67
2021/03/28 00:49:25;;;;;;;13.07;3.60;;;;;;;;;;5048289;28;20180;-68
2021/03/28 00:51:58;;;;;;;12.07;2.90;;;;;;;;;;5042870;28;20173;-69
2021/03/28 00:54:33;;;;;;;10.07;3.07;;;;;;;;;;5045188;28;20527;-68
2021/03/28 00:56:59;;;;;;;8.87;2.60;;;;;;;;;;5041251;28;20169;-68
2021/03/28 00:59:26;;;;;;;11.57;3.67;;;;;;;;;;5048797;28;20257;-69
2021/03/28 01:02:05;;;;;;;14.27;3.50;;;;;;;;;;5044644;28;20201;-68
2021/03/28 01:04:42;;;;;;;13.27;2.73;;;;;;;;;;5048184;28;20955;-68
2021/03/28 01:07:16;;;;;;;12.53;3.73;;;;;;;;;;5039205;28;20162;-68
2021/03/28 01:09:50;;;;;;;14.87;3.43;;;;;;;;;;5049628;28;20204;-68
2021/03/28 01:12:34;;;;;;;14.40;4.53;;;;;;;;;;5047510;28;20172;-68
2021/03/28 01:15:34;;;;;;;11.40;2.87;;;;;;;;;;5041182;28;20296;-68
2021/03/28 01:18:01;;;;;;;10.13;2.93;;;;;;;;;;5042862;28;20212;-67
2021/03/28 01:20:44;;;;;;;16.97;3.90;;;;;;;;;;5043651;28;20197;-68
2021/03/28 01:23:10;;;;;;;11.67;2.80;;;;;;;;;;5044453;28;20201;-68
2021/03/28 01:25:58;;;;;;;8.85;2.95;;;;;;;;;;5046096;28;20677;-68
2021/03/28 01:28:32;;;;;;;16.50;3.50;;;;;;;;;;5045106;28;20194;-67
2021/03/28 01:31:04;;;;;;;13.13;3.40;;;;;;;;;;5047339;28;20284;-68
2021/03/28 01:33:32;;;;;;;10.00;3.17;;;;;;;;;;5043381;28;20201;-68
2021/03/28 01:36:09;;;;;;;10.17;4.13;;;;;;;;;;5041031;28;20231;-68
2021/03/28 01:38:37;;;;;;;10.83;2.93;;;;;;;;;;5043557;28;20227;-68
2021/03/28 01:41:05;;;;;;;16.53;4.23;;;;;;;;;;5047929;28;20239;-68
2021/03/28 01:43:44;;;;;;;11.73;3.40;;;;;;;;;;5050871;28;20174;-68
2021/03/28 01:46:15;;;;;;;18.33;4.20;;;;;;;;;;5044830;28;20283;-68
2021/03/28 01:48:44;;;;;;;15.43;4.30;;;;;;;;;;5039866;28;20188;-68
2021/03/28 01:51:28;;;;;;;15.33;3.93;;;;;;;;;;5047933;28;20272;-69
2021/03/28 01:53:53;;;;;;;13.33;4.60;;;;;;;;;;5048991;28;20291;-68
2021/03/28 01:56:18;;;;;;;14.77;5.37;;;;;;;;;;5048308;28;20445;-69
2021/03/28 01:59:02;;;;;;;20.73;4.88;;;;;;;;;;5044927;28;20244;-68
2021/03/28 02:01:46;;;;;;;14.00;4.80;;;;;;;;;;5048364;28;20202;-69
2021/03/28 02:04:23;;;;;;;11.07;4.77;;;;;;;;;;5049111;28;20178;-66
2021/03/28 02:06:49;;;;;;;17.10;4.43;;;;;;;;;;5038922;28;20185;-68
2021/03/28 02:09:33;;;;;;;15.47;4.50;;;;;;;;;;5052182;28;20174;-68
2021/03/28 02:12:01;;;;;;;12.63;4.93;;;;;;;;;;5049943;28;20308;-68
2021/03/28 02:14:45;;;;;;;15.83;4.93;;;;;;;;;;5048001;28;20178;-68
2021/03/28 02:17:22;;;;;;;15.93;5.40;;;;;;;;;;5045706;28;20170;-68
2021/03/28 02:19:54;;;;;;;14.00;4.70;;;;;;;;;;5051370;28;20289;-68
2021/03/28 02:22:39;;;;;;;19.63;5.30;;;;;;;;;;5052610;28;20173;-68
2021/03/28 02:25:07;;;;;;;15.00;5.07;;;;;;;;;;5045604;28;20670;-68
2021/03/28 02:27:55;;;;;;;19.83;5.97;;;;;;;;;;5050296;28;20666;-68
2021/03/28 02:30:20;;;;;;;16.80;4.67;;;;;;;;;;5051785;28;20206;-68
2021/03/28 02:32:48;;;;;;;16.88;6.15;;;;;;;;;;5052389;28;20290;-68
2021/03/28 02:35:14;;;;;;;13.83;5.30;;;;;;;;;;5051225;28;20212;-68
2021/03/28 02:37:48;;;;;;;13.33;4.17;;;;;;;;;;5051034;28;20177;-66
2021/03/28 02:40:35;;;;;;;21.37;7.27;;;;;;;;;;5046154;28;20225;-68
2021/03/28 02:43:07;;;;;;;14.33;5.60;;;;;;;;;;5047649;28;20603;-68
2021/03/28 02:45:34;;;;;;;14.07;4.93;;;;;;;;;;5049858;28;20260;-68
2021/03/28 02:48:18;;;;;;;10.97;4.77;;;;;;;;;;5051323;28;20220;-67
2021/03/28 02:51:02;;;;;;;15.97;5.30;;;;;;;;;;5050433;28;20672;-68
2021/03/28 02:53:32;;;;;;;11.53;4.43;;;;;;;;;;5046696;28;20193;-68
2021/03/28 02:56:00;;;;;;;17.57;4.97;;;;;;;;;;5044953;28;20237;-68
2021/03/28 02:58:44;;;;;;;16.93;4.60;;;;;;;;;;5048587;28;20217;-68
2021/03/28 03:01:29;;;;;;;13.90;5.70;;;;;;;;;;5041676;28;20194;-68
2021/03/28 03:03:54;;;;;;;10.87;4.13;;;;;;;;;;5041819;28;20186;-68
2021/03/28 03:06:22;;;;;;;14.65;4.82;;;;;;;;;;5045935;28;20183;-68
2021/03/28 03:08:53;;;;;;;9.47;4.13;;;;;;;;;;5050986;28;20204;-68
2021/03/28 03:11:39;;;;;;;12.83;4.73;;;;;;;;;;5046373;28;21929;-68
2021/03/28 03:14:04;;;;;;;12.90;4.50;;;;;;;;;;5047643;28;20663;-68
2021/03/28 03:16:47;;;;;;;13.55;4.55;;;;;;;;;;5037798;28;20218;-68
2021/03/28 03:19:17;;;;;;;10.60;4.80;;;;;;;;;;5049143;28;20182;-69
2021/03/28 03:21:47;;;;;;;15.13;3.80;;;;;;;;;;5048433;28;20234;-68
2021/03/28 03:24:35;;;;;;;13.67;4.30;;;;;;;;;;5050355;28;20193;-68
2021/03/28 03:27:01;;;;;;;12.97;5.03;;;;;;;;;;5048105;28;20181;-68
2021/03/28 03:29:41;;;;;;;10.95;4.10;;;;;;;;;;5050934;28;20181;-68
2021/03/28 03:32:21;;;;;;;9.53;3.83;;;;;;;;;;5047190;28;20196;-68
2021/03/28 03:35:12;;;;;;;14.67;3.93;;;;;;;;;;5051440;28;20197;-68
2021/03/28 03:37:56;;;;;;;10.83;3.73;;;;;;;;;;5049654;28;20182;-67
2021/03/28 03:40:30;;;;;;;11.30;4.27;;;;;;;;;;5043845;28;20205;-68
2021/03/28 03:43:09;;;;;;;15.13;3.50;;;;;;;;;;5052359;28;20209;-68
2021/03/28 03:45:57;;;;;;;8.13;3.47;;;;;;;;;;5048711;28;20186;-68
2021/03/28 03:48:27;;;;;;;8.90;3.17;;;;;;;;;;5047216;28;20188;-68
2021/03/28 03:50:58;;;;;;;14.97;4.73;;;;;;;;;;5039486;28;20724;-68
2021/03/28 03:53:36;;;;;;;11.23;4.20;;;;;;;;;;5047462;28;20270;-68
2021/03/28 03:56:11;;;;;;;8.33;3.30;;;;;;;;;;5047825;28;20197;-68
2021/03/28 03:58:43;;;;;;;13.17;4.47;;;;;;;;;;5052229;28;20181;-68
2021/03/28 04:01:17;;;;;;;11.67;3.83;;;;;;;;;;5047861;28;20259;-67
2021/03/28 04:04:01;;;;;;;8.47;3.13;;;;;;;;;;5049571;28;20182;-68
2021/03/28 04:06:54;;;;;;;7.53;3.60;;;;;;;;;;5039881;28;20185;-68
2021/03/28 04:09:34;;;;;;;9.70;3.40;;;;;;;;;;5050761;28;20616;-67
2021/03/28 04:12:08;;;;;;;11.57;3.30;;;;;;;;;;5042329;28;20200;-67
2021/03/28 04:14:37;;;;;;;12.53;4.10;;;;;;;;;;5048640;28;20270;-68
2021/03/28 04:17:21;;;;;;;8.53;3.37;;;;;;;;;;5046042;28;20256;-67
2021/03/28 04:20:02;;;;;;;10.60;3.67;;;;;;;;;;5052791;28;20255;-68
2021/03/28 04:22:45;;;;;;;10.27;4.07;;;;;;;;;;5047775;28;20208;-68
2021/03/28 04:25:29;;;;;;;10.43;3.90;;;;;;;;;;5043456;28;20180;-68
2021/03/28 04:28:02;;;;;;;10.30;2.73;;;;;;;;;;5047690;28;20231;-68
2021/03/28 04:30:52;;;;;;;11.03;3.70;;;;;;;;;;5050945;28;20242;-68
2021/03/28 04:33:20;;;;;;;11.20;4.53;;;;;;;;;;5047759;28;20217;-68
2021/03/28 04:35:48;;;;;;;7.77;3.37;;;;;;;;;;5054100;28;20651;-68
2021/03/28 04:38:32;;;;;;;17.47;3.50;;;;;;;;;;5049153;28;20213;-68
2021/03/28 04:40:59;;;;;;;6.87;3.17;;;;;;;;;;5046826;28;20217;-68
2021/03/28 04:43:39;;;;;;;11.03;3.63;;;;;;;;;;5047862;28;20197;-68
2021/03/28 04:46:15;;;;;;;7.03;3.73;;;;;;;;;;5046197;28;20247;-68
2021/03/28 04:49:00;;;;;;;10.90;3.70;;;;;;;;;;5046739;28;20193;-68
2021/03/28 04:51:25;;;;;;;12.47;4.77;;;;;;;;;;5048459;28;20683;-68
2021/03/28 04:54:10;;;;;;;9.33;3.20;;;;;;;;;;5049391;28;20192;-68
2021/03/28 04:56:37;;;;;;;9.67;3.30;;;;;;;;;;5046639;28;20259;-69
2021/03/28 04:59:09;;;;;;;11.73;3.60;;;;;;;;;;5049438;28;20678;-67
2021/03/28 05:01:52;;;;;;;7.87;3.30;;;;;;;;;;5044626;28;20260;-68
2021/03/28 05:04:21;;;;;;;11.70;3.57;;;;;;;;;;5041733;28;20178;-67
2021/03/28 05:06:49;;;;;;;8.67;3.70;;;;;;;;;;5047719;28;20181;-67
2021/03/28 05:09:37;;;;;;;11.93;3.90;;;;;;;;;;5047887;28;20259;-68
2021/03/28 05:12:08;;;;;;;7.83;3.17;;;;;;;;;;5046074;28;20224;-68
2021/03/28 05:14:52;;;;;;;13.10;4.00;;;;;;;;;;5044756;28;20181;-68
2021/03/28 05:17:29;;;;;;;10.53;4.10;;;;;;;;;;5041201;28;20176;-68
2021/03/28 05:19:54;;;;;;;8.47;3.13;;;;;;;;;;5046645;28;20202;-68
2021/03/28 05:22:28;;;;;;;6.80;3.57;;;;;;;;;;5048062;28;20178;-68
2021/03/28 05:25:12;;;;;;;15.30;4.13;;;;;;;;;;5050272;28;20178;-68
2021/03/28 05:27:40;;;;;;;15.53;3.53;;;;;;;;;;5047992;28;20208;-68
2021/03/28 05:30:05;;;;;;;12.47;3.20;;;;;;;;;;5046226;28;20194;-67
2021/03/28 05:32:49;;;;;;;10.67;3.30;;;;;;;;;;5049948;28;20185;-68
2021/03/28 05:35:33;;;;;;;9.57;3.53;;;;;;;;;;5040788;28;20201;-69
2021/03/28 05:38:04;;;;;;;11.97;3.80;;;;;;;;;;5046750;28;20540;-68
2021/03/28 05:40:36;;;;;;;9.07;3.90;;;;;;;;;;5049144;28;20210;-67
2021/03/28 05:43:20;;;;;;;10.40;3.73;;;;;;;;;;5042021;28;20851;-68
2021/03/28 05:45:46;;;;;;;7.03;3.20;;;;;;;;;;5045985;28;20679;-68
2021/03/28 05:48:37;;;;;;;11.20;4.20;;;;;;;;;;5043152;28;20323;-68
2021/03/28 05:51:21;;;;;;;15.83;3.83;;;;;;;;;;5047016;28;20205;-68
2021/03/28 05:53:49;;;;;;;10.60;3.50;;;;;;;;;;5049890;28;20689;-68
2021/03/28 05:56:51;;;;;;;13.40;3.10;;;;;;;;;;5040122;28;20205;-67
2021/03/28 05:59:22;;;;;;;8.50;3.07;;;;;;;;;;5045494;28;20174;-68
2021/03/28 06:02:04;;;;;;;9.30;3.83;;;;;;;;;;5044918;28;20194;-67
2021/03/28 06:04:32;;;;;;;9.47;3.33;;;;;;;;;;5047746;28;20607;-67
2021/03/28 06:07:16;;;;;;;7.87;3.90;;;;;;;;;;5042274;28;20173;-67
2021/03/28 06:09:47;;;;;;;8.00;3.30;;;;;;;;;;5047651;28;20224;-68
2021/03/28 06:12:21;;;;;;;7.53;3.27;;;;;;;;;;5045913;28;20254;-68
2021/03/28 06:14:52;;;;;;;11.53;4.17;;;;;;;;;;5046207;28;20231;-68
2021/03/28 06:17:25;;;;;;;7.43;3.80;;;;;;;;;;5048896;28;20605;-68
2021/03/28 06:20:09;;;;;;;9.50;3.73;;;;;;;;;;5049260;28;20220;-68
2021/03/28 06:22:34;;;;;;;9.90;3.47;;;;;;;;;;5047017;28;20209;-68
2021/03/28 06:25:30;;;;;;;8.88;3.50;;;;;;;;;;5046201;28;20251;-68
2021/03/28 06:28:20;;;;;;;9.60;3.37;;;;;;;;;;5043353;28;20268;-68
2021/03/28 06:31:04;;;;;;;9.20;2.70;;;;;;;;;;5048116;28;20201;-68
2021/03/28 06:33:30;;;;;;;9.67;3.10;;;;;;;;;;5044322;28;20196;-67
2021/03/28 06:36:14;;;;;;;7.20;2.97;;;;;;;;;;5047533;28;20194;-69
2021/03/28 06:38:48;;;;;;;8.70;4.00;;;;;;;;;;5047837;28;20235;-67
2021/03/28 06:41:22;;;;;;;7.23;3.13;;;;;;;;;;5053179;28;20208;-66
2021/03/28 06:43:50;;;;;;;9.13;3.30;;;;;;;;;;5052102;28;20609;-69
2021/03/28 06:46:33;;;;;;;8.17;2.60;;;;;;;;;;5050181;28;20658;-67
2021/03/28 06:49:15;;;;;;;8.80;3.03;;;;;;;;;;5050801;28;20264;-66
2021/03/28 06:51:59;;;;;;;10.90;3.50;;;;;;;;;;5048039;28;20216;-67
2021/03/28 06:54:33;;;;;;;6.17;2.80;;;;;;;;;;5050756;28;20192;-67
2021/03/28 06:57:17;;;;;;;5.20;2.87;;;;;;;;;;5048398;28;20521;-67
2021/03/28 06:59:42;;;;;;;8.37;2.77;;;;;;;;;;5050374;28;20201;-67
2021/03/28 07:02:26;;;;;;;6.83;3.00;;;;;;;;;;5046817;28;20169;-67
2021/03/28 07:05:09;;;;;;;4.50;2.77;;;;;;;;;;5048223;28;20472;-67
2021/03/28 07:07:53;;;;;;;7.43;3.30;;;;;;;;;;5050322;28;20279;-66
2021/03/28 07:10:25;;;;;;;7.50;3.20;;;;;;;;;;5050537;28;20209;-66
2021/03/28 07:13:09;;;;;;;7.77;3.00;;;;;;;;;;5052914;28;20181;-66
2021/03/28 07:15:42;;;;;;;5.20;2.70;;;;;;;;;;5044253;28;20210;-67
2021/03/28 07:18:07;;;;;;;7.13;3.10;;;;;;;;;;5043023;28;20269;-67
2021/03/28 07:20:36;;;;;;;8.17;3.60;;;;;;;;;;5051745;28;20284;-66
2021/03/28 07:23:19;;;;;;;7.50;3.07;;;;;;;;;;5051348;28;20508;-65
2021/03/28 07:25:54;;;;;;;7.83;2.77;;;;;;;;;;5046087;28;20548;-67
2021/03/28 07:28:22;;;;;;;6.43;2.60;;;;;;;;;;5050670;28;20494;-67
2021/03/28 07:31:05;;;;;;;8.33;3.63;;;;;;;;;;5049161;28;20232;-67
2021/03/28 07:33:49;;;;;;;9.23;3.63;;;;;;;;;;5048835;28;20248;-67
2021/03/28 07:36:16;;;;;;;7.73;3.43;;;;;;;;;;5048765;28;20195;-66
2021/03/28 07:38:44;;;;;;;9.43;3.13;;;;;;;;;;5049096;28;20183;-67
2021/03/28 07:41:17;;;;;;;7.50;3.40;;;;;;;;;;5045384;28;20210;-67
2021/03/28 07:43:48;;;;;;;7.73;4.00;;;;;;;;;;5051811;28;20182;-67
2021/03/28 07:46:13;;;;;;;7.13;3.70;;;;;;;;;;5047933;28;20178;-67
2021/03/28 07:48:42;;;;;;;5.83;3.00;;;;;;;;;;5044785;28;20307;-67
2021/03/28 07:51:16;;;;;;;9.20;3.40;;;;;;;;;;5051434;28;20453;-67
2021/03/28 07:53:41;;;;;;;10.77;3.70;;;;;;;;;;5046268;28;20238;-66
2021/03/28 07:56:22;;;;;;;7.23;3.60;;;;;;;;;;5050962;28;20201;-67
2021/03/28 07:58:56;;;;;;;6.77;3.50;;;;;;;;;;5043545;28;20181;-66
2021/03/28 08:01:33;;;;;;;7.90;2.87;;;;;;;;;;5048040;28;20214;-67
2021/03/28 08:04:25;;;;;;;7.50;3.10;;;;;;;;;;5051464;28;20177;-67
2021/03/28 08:07:09;;;;;;;10.13;3.27;;;;;;;;;;5047898;28;20193;-66
2021/03/28 08:09:53;;;;;;;8.73;3.10;;;;;;;;;;5038626;28;20208;-66
2021/03/28 08:12:24;;;;;;;8.47;3.00;;;;;;;;;;5045931;28;20174;-67
2021/03/28 08:14:58;;;;;;;8.60;3.97;;;;;;;;;;5039862;28;20186;-67
2021/03/28 08:17:42;;;;;;;10.40;3.00;;;;;;;;;;5046647;28;20616;-67
2021/03/28 08:20:39;;;;;;;7.83;2.90;;;;;;;;;;5048789;28;20189;-67
2021/03/28 08:23:04;;;;;;;7.40;3.57;;;;;;;;;;5046599;28;20619;-67
2021/03/28 08:25:45;;;;;;;7.07;2.40;;;;;;;;;;5047184;28;20651;-66
2021/03/28 08:28:16;;;;;;;10.47;3.30;;;;;;;;;;5050923;28;20475;-67
2021/03/28 08:30:47;;;;;;;9.87;2.80;;;;;;;;;;5048982;28;20212;-67
2021/03/28 08:33:35;;;;;;;10.53;3.27;;;;;;;;;;5048096;28;20201;-67
2021/03/28 08:36:01;;;;;;;7.63;3.07;;;;;;;;;;5044300;28;20221;-67
2021/03/28 08:38:29;;;;;;;10.37;2.90;;;;;;;;;;5050627;28;20336;-67
2021/03/28 08:40:54;;;;;;;6.93;3.00;;;;;;;;;;5049577;28;20449;-68
2021/03/28 08:43:19;;;;;;;8.47;2.73;;;;;;;;;;5049966;28;20182;-67
2021/03/28 08:46:03;;;;;;;8.10;3.17;;;;;;;;;;5048741;28;20510;-68
2021/03/28 08:48:28;;;;;;;6.10;2.57;;;;;;;;;;5045937;28;20423;-67
2021/03/28 08:51:07;;;;;;;4.88;2.50;;;;;;;;;;5049469;28;20212;-68
2021/03/28 08:53:35;;;;;;;8.70;3.60;;;;;;;;;;5045740;28;20192;-68
2021/03/28 08:56:19;;;;;;;10.40;3.83;;;;;;;;;;5047880;28;20198;-68
2021/03/28 08:58:47;;;;;;;10.17;2.77;;;;;;;;;;5048977;28;20185;-68
2021/03/28 09:01:14;;;;;;;10.80;2.90;;;;;;;;;;5042891;28;20693;-68
2021/03/28 09:03:53;;;;;;;11.70;3.80;;;;;;;;;;5047051;28;20178;-68
2021/03/28 09:06:19;;;;;;;8.83;2.70;;;;;;;;;;5043945;28;20205;-67
2021/03/28 09:08:55;;;;;;;9.67;3.00;;;;;;;;;;5050543;28;20618;-67
2021/03/28 09:11:43;;;;;;;10.85;3.75;;;;;;;;;;5044088;28;20299;-68
2021/03/28 09:14:08;;;;;;;9.10;3.33;;;;;;;;;;5047495;28;20182;-68
2021/03/28 09:16:50;;;;;;;8.73;3.00;;;;;;;;;;5048755;28;20193;-67
2021/03/28 09:19:15;;;;;;;6.97;3.20;;;;;;;;;;5046163;28;20783;-67
2021/03/28 09:21:55;;;;;;;6.30;2.85;;;;;;;;;;5049705;28;20189;-68
2021/03/28 09:24:30;;;;;;;8.20;2.17;;;;;;;;;;5044485;28;20179;-68
2021/03/28 09:27:16;;;;;;;5.07;1.92;;;;;;;;;;5049006;28;20176;-68
2021/03/28 09:29:49;;;;;;;6.67;2.37;;;;;;;;;;5045576;28;20210;-68
2021/03/28 09:32:33;;;;;;;7.83;2.67;;;;;;;;;;5045812;28;20628;-67
2021/03/28 09:35:24;;;;;;;6.32;2.30;;;;;;;;;;5046777;28;20178;-67
2021/03/28 09:38:08;;;;;;;7.27;2.93;;;;;;;;;;5042114;28;20763;-68
2021/03/28 09:40:39;;;;;;;6.27;2.23;;;;;;;;;;5037459;28;20691;-68
2021/03/28 09:43:27;;;;;;;8.17;2.53;;;;;;;;;;5043520;28;20180;-68
2021/03/28 09:45:59;;;;;;;4.50;2.20;;;;;;;;;;5037397;28;20676;-67
2021/03/28 09:48:24;;;;;;;8.93;2.27;;;;;;;;;;5036305;28;20182;-67
2021/03/28 09:50:52;;;;;;;9.50;3.87;;;;;;;;;;5040722;28;20265;-68
2021/03/28 09:53:38;;;;;;;6.00;2.83;;;;;;;;;;5045799;28;20197;-67
2021/03/28 09:56:06;;;;;;;8.57;3.47;;;;;;;;;;5043471;28;20209;-68
2021/03/28 09:58:55;;;;;;;7.80;2.97;;;;;;;;;;5039279;28;20258;-68
2021/03/28 10:01:23;;;;;;;6.07;2.67;;;;;;;;;;5043791;28;20189;-66
2021/03/28 10:03:54;;;;;;;9.67;2.50;;;;;;;;;;5047226;28;20181;-68
2021/03/28 10:06:20;;;;;;;9.57;2.70;;;;;;;;;;5047075;28;20185;-68
2021/03/28 10:08:48;;;;;;;6.37;2.37;;;;;;;;;;5047662;28;20549;-67
2021/03/28 10:11:14;;;;;;;6.57;2.20;;;;;;;;;;5036518;28;20227;-67
2021/03/28 10:13:46;;;;;;;8.37;2.50;;;;;;;;;;5043161;28;20643;-66
2021/03/28 10:16:11;;;;;;;7.17;2.17;;;;;;;;;;5054896;28;20624;-68
2021/03/28 10:18:55;;;;;;;8.90;2.67;;;;;;;;;;5051528;28;20261;-68
2021/03/28 10:21:35;;;;;;;8.97;3.50;;;;;;;;;;5049969;28;20204;-68
2021/03/28 10:24:19;;;;;;;5.87;2.57;;;;;;;;;;5053103;28;20177;-68
2021/03/28 10:27:04;;;;;;;7.40;2.40;;;;;;;;;;5051814;28;20438;-67
2021/03/28 10:29:43;;;;;;;7.73;2.80;;;;;;;;;;5046691;28;20219;-68
2021/03/28 10:32:15;;;;;;;7.10;2.70;;;;;;;;;;5041233;28;20595;-67
2021/03/28 10:34:56;;;;;;;8.57;2.97;;;;;;;;;;5036539;28;20193;-67
2021/03/28 10:37:31;;;;;;;12.23;3.73;;;;;;;;;;5055957;28;20178;-68
2021/03/28 10:40:09;;;;;;;8.63;2.20;;;;;;;;;;5028629;28;20197;-68
2021/03/28 10:42:34;;;;;;;6.33;2.10;;;;;;;;;;5036824;28;20185;-65
2021/03/28 10:45:18;;;;;;;10.90;2.57;;;;;;;;;;5024835;28;20182;-67
2021/03/28 10:48:01;;;;;;;7.93;2.30;;;;;;;;;;5024286;28;20418;-68
2021/03/28 10:50:47;;;;;;;7.97;2.37;;;;;;;;;;5025143;28;20301;-67
2021/03/28 10:53:12;;;;;;;8.27;2.63;;;;;;;;;;5025723;28;20205;-67
2021/03/28 10:55:56;;;;;;;8.17;2.90;;;;;;;;;;5030568;28;20699;-67
2021/03/28 10:58:40;;;;;;;12.57;3.87;;;;;;;;;;5028039;28;20178;-68
2021/03/28 11:01:14;;;;;;;6.23;2.43;;;;;;;;;;5034711;28;21154;-66
2021/03/28 11:03:57;;;;;;;5.50;1.93;;;;;;;;;;5035426;28;20199;-67
2021/03/28 11:06:28;;;;;;;6.53;2.10;;;;;;;;;;5026870;28;20715;-66
2021/03/28 11:09:06;;;;;;;9.03;2.23;;;;;;;;;;5025870;28;21842;-66
2021/03/28 11:11:37;;;;;;;6.17;2.70;;;;;;;;;;5026290;28;20637;-68
2021/03/28 11:14:21;;;;;;;8.10;2.90;;;;;;;;;;5030331;28;20208;-67
2021/03/28 11:16:49;;;;;;;7.97;2.63;;;;;;;;;;5027575;28;20210;-68
2021/03/28 11:19:52;;;;;;;9.33;2.80;;;;;;;;;;5026703;28;20188;-66
2021/03/28 11:22:22;;;;;;;11.03;3.63;;;;;;;;;;5031231;28;20197;-66
2021/03/28 11:25:04;;;;;;;12.73;3.73;;;;;;;;;;5029100;28;20765;-67
2021/03/28 11:27:32;;;;;;;11.63;4.67;;;;;;;;;;5025502;28;20202;-68
2021/03/28 11:30:03;;;;;;;9.13;2.97;;;;;;;;;;5026049;28;20678;-68
2021/03/28 11:32:31;;;;;;;4.47;2.73;;;;;;;;;;5023601;28;20699;-67
2021/03/28 11:35:02;;;;;;;6.47;3.10;;;;;;;;;;5025560;28;20174;-68
2021/03/28 11:37:47;;;;;;;6.20;2.33;;;;;;;;;;5030672;28;20263;-67
2021/03/28 11:40:17;;;;;;;12.70;3.23;;;;;;;;;;5027882;28;20213;-68
2021/03/28 11:42:47;;;;;;;7.53;2.60;;;;;;;;;;5025897;28;20213;-67
2021/03/28 11:45:12;;;;;;;8.07;3.00;;;;;;;;;;5027758;28;20562;-68
2021/03/28 11:47:40;;;;;;;8.83;3.00;;;;;;;;;;5032271;28;20447;-68
2021/03/28 11:50:14;;;;;;;7.80;2.60;;;;;;;;;;5027200;28;20546;-66
2021/03/28 11:52:51;;;;;;;12.67;2.80;;;;;;;;;;5026630;28;20216;-67
2021/03/28 11:55:25;;;;;;;9.47;2.90;;;;;;;;;;5026042;28;20217;-68
2021/03/28 11:58:08;;;;;;;6.57;2.13;;;;;;;;;;5029229;28;20329;-67
2021/03/28 12:00:46;;;;;;;7.70;2.75;;;;;;;;;;5026742;28;20220;-67
2021/03/28 12:03:22;;;;;;;6.63;2.00;;;;;;;;;;5027130;28;20288;-67
2021/03/28 12:05:51;;;;;;;9.53;2.93;;;;;;;;;;5035797;28;20181;-67
2021/03/28 12:08:17;;;;;;;9.17;2.37;;;;;;;;;;5029040;28;20663;-67
2021/03/28 12:10:42;;;;;;;9.00;2.47;;;;;;;;;;5025198;28;20206;-67
2021/03/28 12:13:26;;;;;;;11.93;2.60;;;;;;;;;;5025911;28;20194;-67
2021/03/28 12:15:52;;;;;;;5.13;2.03;;;;;;;;;;5026230;28;20727;-66
2021/03/28 12:18:20;;;;;;;11.83;3.00;;;;;;;;;;5026294;28;20192;-67
2021/03/28 12:20:45;;;;;;;5.50;2.40;;;;;;;;;;5024562;28;20328;-67
2021/03/28 12:23:22;;;;;;;8.57;2.57;;;;;;;;;;5032950;28;20183;-67
2021/03/28 12:26:02;;;;;;;10.00;3.00;;;;;;;;;;5026152;28;20540;-67
2021/03/28 12:28:29;;;;;;;6.80;2.63;;;;;;;;;;5030491;28;20644;-67
2021/03/28 12:30:55;;;;;;;8.65;2.55;;;;;;;;;;5023821;28;20312;-65
2021/03/28 12:33:23;;;;;;;9.18;3.45;;;;;;;;;;5024578;28;20254;-67
2021/03/28 12:36:04;;;;;;;11.05;2.80;;;;;;;;;;5025932;28;20534;-65
2021/03/28 12:38:29;;;;;;;11.15;3.13;;;;;;;;;;5024953;28;20217;-66
2021/03/28 12:41:13;;;;;;;8.85;2.83;;;;;;;;;;5025974;28;20611;-66
2021/03/28 12:43:56;;;;;;;11.07;2.83;;;;;;;;;;5023598;28;20430;-65
2021/03/28 12:46:27;;;;;;;7.53;2.80;;;;;;;;;;5024209;28;20675;-68
2021/03/28 12:49:12;;;;;;;10.87;2.87;;;;;;;;;;5031715;28;20251;-67
2021/03/28 12:51:40;;;;;;;7.90;2.83;;;;;;;;;;5027863;28;20202;-66
2021/03/28 12:54:20;;;;;;;8.53;2.83;;;;;;;;;;5028768;28;20204;-67
2021/03/28 12:56:49;;;;;;;11.50;2.97;;;;;;;;;;5025089;28;20217;-67
2021/03/28 12:59:29;;;;;;;10.23;2.77;;;;;;;;;;5025285;28;20182;-65
2021/03/28 13:01:54;;;;;;;8.77;2.60;;;;;;;;;;5025263;28;20188;-67
2021/03/28 13:04:22;;;;;;;11.93;2.97;;;;;;;;;;5028907;28;20182;-67
2021/03/28 13:06:48;;;;;;;10.63;2.93;;;;;;;;;;5024239;28;20198;-68
2021/03/28 13:09:16;;;;;;;8.03;2.70;;;;;;;;;;5024152;28;20185;-66
2021/03/28 13:12:18;;;;;;;8.23;3.10;;;;;;;;;;5025647;28;20414;-67
2021/03/28 13:14:44;;;;;;;7.53;2.47;;;;;;;;;;5027391;28;21742;-66
2021/03/28 13:17:17;;;;;;;9.47;3.60;;;;;;;;;;5027128;28;20248;-67
2021/03/28 13:19:43;;;;;;;10.40;3.10;;;;;;;;;;5026620;28;20210;-67
2021/03/28 13:22:33;;;;;;;11.67;3.60;;;;;;;;;;5029277;28;20181;-67
2021/03/28 13:25:17;;;;;;;6.87;2.67;;;;;;;;;;5023076;28;20187;-66
2021/03/28 13:27:42;;;;;;;7.87;2.80;;;;;;;;;;5027953;28;22094;-67
2021/03/28 13:30:17;;;;;;;6.73;2.70;;;;;;;;;;5022853;28;20210;-67
2021/03/28 13:32:46;;;;;;;12.43;3.83;;;;;;;;;;5025393;28;20292;-66
2021/03/28 13:35:30;;;;;;;13.77;3.13;;;;;;;;;;5024840;28;20198;-67
2021/03/28 13:37:56;;;;;;;9.07;2.93;;;;;;;;;;5020830;28;20200;-66
2021/03/28 13:40:24;;;;;;;10.07;3.07;;;;;;;;;;5022851;28;20198;-66
2021/03/28 13:43:04;;;;;;;7.70;3.20;;;;;;;;;;5024016;28;20181;-67
2021/03/28 13:45:32;;;;;;;14.27;3.07;;;;;;;;;;5022905;28;20181;-66
2021/03/28 13:48:18;;;;;;;6.73;2.87;;;;;;;;;;5025053;28;20209;-65
2021/03/28 13:50:45;;;;;;;6.57;2.60;;;;;;;;;;5024117;28;21843;-67
2021/03/28 13:53:17;;;;;;;9.07;3.55;;;;;;;;;;5026300;28;20190;-65
2021/03/28 13:55:45;;;;;;;7.47;2.25;;;;;;;;;;5023900;28;20240;-65
2021/03/28 13:58:18;;;;;;;10.95;3.13;;;;;;;;;;5031341;28;20208;-67
2021/03/28 14:00:43;;;;;;;9.45;2.78;;;;;;;;;;5022786;28;20209;-66
2021/03/28 14:03:17;;;;;;;5.97;2.15;;;;;;;;;;5023017;28;20648;-67
2021/03/28 14:05:44;;;;;;;8.20;3.20;;;;;;;;;;5027590;28;20724;-66
2021/03/28 14:08:15;;;;;;;8.07;3.08;;;;;;;;;;5023889;28;20246;-66
2021/03/28 14:10:48;;;;;;;11.35;2.42;;;;;;;;;;5021227;28;20198;-66
2021/03/28 14:13:28;;;;;;;8.77;2.55;;;;;;;;;;5025224;28;20201;-66
2021/03/28 14:15:59;;;;;;;6.65;2.30;;;;;;;;;;5025638;28;20220;-65
2021/03/28 14:18:29;;;;;;;7.55;2.20;;;;;;;;;;5027550;28;20198;-66
2021/03/28 14:21:13;;;;;;;9.85;2.35;;;;;;;;;;5022504;28;20338;-66
2021/03/28 14:23:47;;;;;;;6.32;3.38;;;;;;;;;;5026079;28;20281;-67
2021/03/28 14:26:12;;;;;;;11.55;2.70;;;;;;;;;;5023707;28;20220;-66
2021/03/28 14:28:37;;;;;;;9.93;3.70;;;;;;;;;;5031097;28;20186;-67
2021/03/28 14:31:05;;;;;;;8.40;3.10;;;;;;;;;;5021905;28;20567;-66
2021/03/28 14:33:53;;;;;;;13.82;4.10;;;;;;;;;;5022950;28;20524;-67
2021/03/28 14:36:41;;;;;;;7.05;2.47;;;;;;;;;;5022565;28;20205;-67
2021/03/28 14:39:15;;;;;;;8.52;2.83;;;;;;;;;;5025519;28;20464;-67
2021/03/28 14:42:02;;;;;;;8.13;2.40;;;;;;;;;;5022344;28;20201;-67
2021/03/28 14:44:33;;;;;;;11.60;2.75;;;;;;;;;;5023959;28;20182;-67
2021/03/28 14:47:02;;;;;;;5.38;2.10;;;;;;;;;;5024834;28;20219;-67
2021/03/28 14:49:48;;;;;;;11.43;4.05;;;;;;;;;;5024061;28;20194;-66
2021/03/28 14:52:26;;;;;;;8.20;2.25;;;;;;;;;;5022773;28;20664;-67
2021/03/28 14:55:02;;;;;;;7.05;2.72;;;;;;;;;;5022439;28;20191;-66
2021/03/28 14:57:47;;;;;;;10.05;2.30;;;;;;;;;;5020911;28;20189;-67
2021/03/28 15:00:34;;;;;;;10.32;2.33;;;;;;;;;;5025640;28;20225;-66
2021/03/28 15:02:59;;;;;;;5.95;1.65;;;;;;;;;;5032239;28;20170;-67
2021/03/28 15:05:40;;;;;;;8.38;2.63;;;;;;;;;;5032911;28;20574;-67
2021/03/28 15:08:08;;;;;;;6.70;2.55;;;;;;;;;;5028074;28;20638;-68
2021/03/28 15:10:47;;;;;;;6.18;1.92;;;;;;;;;;5024749;28;20629;-67
2021/03/28 15:13:18;;;;;;;9.63;2.22;;;;;;;;;;5026171;28;20757;-67
2021/03/28 15:15:48;;;;;;;13.90;4.28;;;;;;;;;;5026116;28;20683;-67
2021/03/28 15:18:20;;;;;;;8.68;2.55;;;;;;;;;;5026782;28;20698;-67
2021/03/28 15:20:48;;;;;;;10.00;2.75;;;;;;;;;;5024812;28;20340;-67
2021/03/28 15:23:32;;;;;;;9.07;3.08;;;;;;;;;;5027893;28;20189;-68
2021/03/28 15:26:03;;;;;;;13.33;2.90;;;;;;;;;;5023619;28;20178;-67